Time;durP1;ratioP1;P1;durP2;ratioP2;P2;SDS_P1;SDS_P2;PMS_P1;PMS_P2;Temp;Humidity;BMP_temperature;BMP_pressure;BME280_temperature;BME280_humidity;BME280_pressure;Samples;Min_cycle;Max_cycle;Signal;HPM_P1;HPM_P2
2022/05/10 00:00:19;;;;;;;1.93;1.73;;;;;;;14.03;100.00;96800.59;5012918;28;20234;-89
2022/05/10 00:02:50;;;;;;;2.53;1.90;;;;;;;14.02;100.00;96805.22;5018517;28;20207;-89
2022/05/10 00:05:25;;;;;;;2.23;2.00;;;;;;;13.96;100.00;96797.19;5017558;28;20243;-89
2022/05/10 00:07:52;;;;;;;3.77;2.10;;;;;;;14.03;100.00;96808.75;5011656;28;20211;-91
2022/05/10 00:10:19;;;;;;;1.80;1.70;;;;;;;14.07;100.00;96812.63;5017954;28;20237;-91
2022/05/10 00:12:46;;;;;;;4.13;2.00;;;;;;;14.14;100.00;96807.88;5021117;28;20199;-89
2022/05/10 00:15:14;;;;;;;2.10;1.90;;;;;;;14.02;100.00;96807.94;5021836;28;20293;-90
2022/05/10 00:17:44;;;;;;;4.57;2.30;;;;;;;13.94;100.00;96805.59;5015388;28;20199;-90
2022/05/10 00:20:14;;;;;;;5.20;2.10;;;;;;;13.94;100.00;96799.34;5006631;28;20459;-89
2022/05/10 00:22:42;;;;;;;3.43;1.80;;;;;;;13.85;100.00;96798.88;5014725;28;20236;-91
2022/05/10 00:25:12;;;;;;;2.10;1.87;;;;;;;13.78;100.00;96800.88;5017843;28;20208;-91
2022/05/10 00:27:39;;;;;;;2.13;1.70;;;;;;;13.75;100.00;96812.22;5012679;28;20208;-89
2022/05/10 00:30:08;;;;;;;5.57;1.90;;;;;;;13.77;100.00;96809.28;5039828;28;20191;-90
2022/05/10 00:32:38;;;;;;;3.90;2.20;;;;;;;13.72;100.00;96804.56;5017939;28;20289;-89
2022/05/10 00:35:15;;;;;;;1.90;1.70;;;;;;;13.77;100.00;96809.28;5006869;28;20239;-91
2022/05/10 00:37:43;;;;;;;3.80;2.17;;;;;;;13.74;100.00;96807.03;5013616;28;20251;-91
2022/05/10 00:40:11;;;;;;;2.40;2.13;;;;;;;13.62;100.00;96799.72;5021625;28;20201;-90
2022/05/10 00:42:48;;;;;;;2.30;1.70;;;;;;;13.67;100.00;96806.34;5016302;28;20245;-89
2022/05/10 00:45:19;;;;;;;2.10;1.80;;;;;;;13.61;100.00;96811.66;5010325;28;20235;-90
2022/05/10 00:47:51;;;;;;;3.20;2.40;;;;;;;13.54;100.00;96812.84;5014439;28;20282;-92
2022/05/10 00:50:34;;;;;;;3.37;1.80;;;;;;;13.48;100.00;96817.34;5013600;28;20226;-89
2022/05/10 00:53:06;;;;;;;4.30;1.80;;;;;;;13.45;100.00;96825.09;5029535;28;20217;-91
2022/05/10 00:55:39;;;;;;;2.50;2.00;;;;;;;13.32;100.00;96818.06;5016473;28;20231;-89
2022/05/10 00:58:16;;;;;;;2.13;1.80;;;;;;;13.36;100.00;96824.63;5016681;28;20297;-87
2022/05/10 01:00:44;;;;;;;3.47;1.83;;;;;;;13.38;100.00;96825.25;5017895;28;20317;-91
2022/05/10 01:03:17;;;;;;;1.97;1.87;;;;;;;13.29;100.00;96815.81;5013416;28;20196;-90
2022/05/10 01:05:52;;;;;;;2.03;1.80;;;;;;;13.26;100.00;96824.44;5019917;28;20220;-86
2022/05/10 01:08:22;;;;;;;3.83;2.17;;;;;;;13.24;100.00;96829.25;5028310;28;20207;-91
2022/05/10 01:10:55;;;;;;;2.60;2.17;;;;;;;13.17;100.00;96829.38;5014589;28;20294;-88
2022/05/10 01:13:29;;;;;;;2.20;1.97;;;;;;;13.15;100.00;96827.94;5019336;28;20211;-91
2022/05/10 01:16:05;;;;;;;2.63;1.90;;;;;;;13.10;100.00;96827.81;5016514;28;20219;-89
2022/05/10 01:18:33;;;;;;;3.33;2.10;;;;;;;13.11;100.00;96829.44;5012908;28;20257;-91
2022/05/10 01:21:13;;;;;;;3.87;2.10;;;;;;;13.11;100.00;96830.25;5023692;28;20223;-91
2022/05/10 01:24:27;;;;;;;2.47;2.03;;;;;;;13.12;100.00;96839.22;5017503;28;20230;-89
2022/05/10 01:27:12;;;;;;;3.53;2.03;;;;;;;13.06;100.00;96838.28;4937629;28;20223;-89
2022/05/10 01:29:45;;;;;;;3.90;1.90;;;;;;;13.02;100.00;96825.41;4945848;28;20547;-88
2022/05/10 01:35:07;;;;;;;2.43;2.20;;;;;;;12.80;100.00;96825.97;5021847;28;20247;-88
2022/05/10 01:37:40;;;;;;;2.60;2.20;;;;;;;12.77;100.00;96826.44;5021654;28;20297;-91
2022/05/10 01:40:17;;;;;;;3.57;2.67;;;;;;;12.65;100.00;96833.72;5015415;28;20258;-91
2022/05/10 01:42:49;;;;;;;2.77;2.10;;;;;;;12.65;100.00;96833.72;5017382;28;20253;-91
2022/05/10 01:45:25;;;;;;;2.27;2.00;;;;;;;12.70;100.00;96839.25;5013615;28;20203;-90
2022/05/10 01:47:58;;;;;;;2.07;1.87;;;;;;;12.76;100.00;96845.66;5015836;28;20217;-90
2022/05/10 01:50:31;;;;;;;2.70;2.30;;;;;;;12.80;100.00;96844.94;5017114;28;20232;-89
2022/05/10 01:53:05;;;;;;;4.30;2.10;;;;;;;12.73;100.00;96840.69;5024497;28;20269;-90
2022/05/10 01:55:35;;;;;;;1.93;1.73;;;;;;;12.74;100.00;96847.78;5021420;28;20205;-88
2022/05/10 01:58:08;;;;;;;6.13;2.50;;;;;;;12.70;100.00;96850.09;5015920;28;20279;-89
2022/05/10 02:00:38;;;;;;;2.37;1.90;;;;;;;12.67;100.00;96850.59;5016506;28;20207;-90
2022/05/10 02:03:12;;;;;;;2.67;2.03;;;;;;;12.65;100.00;96847.28;5022713;28;20215;-92
2022/05/10 02:05:48;;;;;;;4.27;2.00;;;;;;;12.59;100.00;96853.59;5023985;28;20194;-91
2022/05/10 02:08:30;;;;;;;3.83;2.10;;;;;;;12.45;100.00;96852.13;5011602;28;20210;-86
2022/05/10 02:11:02;;;;;;;3.97;2.03;;;;;;;12.30;100.00;96851.72;5020317;28;20198;-90
2022/05/10 02:13:34;;;;;;;2.50;2.30;;;;;;;12.15;100.00;96854.84;5022434;28;20203;-90
2022/05/10 02:16:08;;;;;;;5.17;2.13;;;;;;;12.07;100.00;96850.56;5023895;28;20265;-91
2022/05/10 02:18:49;;;;;;;2.30;1.87;;;;;;;12.18;100.00;96858.94;5010850;28;20199;-90
2022/05/10 02:21:21;;;;;;;1.90;1.60;;;;;;;12.26;100.00;96858.63;5024435;28;20230;-87
2022/05/10 02:23:54;;;;;;;2.63;2.33;;;;;;;12.29;100.00;96852.78;5015865;28;20211;-90
2022/05/10 02:26:28;;;;;;;3.50;2.03;;;;;;;12.15;100.00;96849.44;5010841;28;20200;-88
2022/05/10 02:29:07;;;;;;;5.00;2.07;;;;;;;12.09;100.00;96861.97;5023476;28;20203;-91
2022/05/10 02:34:23;;;;;;;2.57;2.03;;;;;;;12.12;100.00;96853.41;5021180;28;20230;-90
2022/05/10 02:36:50;;;;;;;3.47;2.07;;;;;;;12.10;100.00;96846.56;5012892;28;20207;-90
2022/05/10 02:39:17;;;;;;;2.47;2.10;;;;;;;12.06;100.00;96840.78;5018574;28;20238;-91
2022/05/10 02:41:44;;;;;;;2.80;2.00;;;;;;;11.99;100.00;96850.06;5017478;28;20222;-89
2022/05/10 02:44:12;;;;;;;2.70;2.20;;;;;;;12.03;100.00;96841.25;5012371;28;20298;-88
2022/05/10 02:46:40;;;;;;;3.17;1.97;;;;;;;12.05;100.00;96836.44;5045190;28;20338;-87
2022/05/10 02:49:08;;;;;;;2.50;2.00;;;;;;;11.88;100.00;96838.09;5013540;28;20301;-90
2022/05/10 02:51:35;;;;;;;3.23;1.90;;;;;;;11.68;100.00;96840.16;5011612;28;20283;-88
2022/05/10 02:54:02;;;;;;;3.53;2.17;;;;;;;11.54;100.00;96827.84;5017638;28;20215;-89
2022/05/10 02:56:31;;;;;;;2.13;1.90;;;;;;;11.66;100.00;96836.84;5015921;28;20219;-90
2022/05/10 02:59:01;;;;;;;2.17;1.93;;;;;;;11.76;100.00;96826.38;5010413;28;20302;-90
2022/05/10 03:01:36;;;;;;;2.53;2.10;;;;;;;11.79;100.00;96827.81;5014614;28;20226;-87
2022/05/10 03:04:08;;;;;;;5.17;2.30;;;;;;;11.88;100.00;96832.69;5014390;28;20253;-89
2022/05/10 03:06:37;;;;;;;2.43;1.90;;;;;;;11.96;100.00;96826.97;5019301;28;20253;-87
2022/05/10 03:09:05;;;;;;;2.83;2.00;;;;;;;12.00;100.00;96825.44;5021051;28;20211;-89
2022/05/10 03:11:35;;;;;;;2.40;1.70;;;;;;;11.98;100.00;96824.03;5021486;28;20218;-88
2022/05/10 03:14:02;;;;;;;2.47;1.90;;;;;;;12.03;100.00;96822.28;5022584;28;20298;-87
2022/05/10 03:16:29;;;;;;;3.00;2.00;;;;;;;12.07;100.00;96814.56;5015800;28;20231;-88
2022/05/10 03:18:57;;;;;;;4.27;1.73;;;;;;;12.14;100.00;96809.88;5009489;28;20227;-90
2022/05/10 03:21:26;;;;;;;2.33;2.10;;;;;;;12.22;100.00;96814.16;5012820;28;20304;-88
2022/05/10 03:23:53;;;;;;;3.03;2.00;;;;;;;12.26;100.00;96805.31;5012867;28;20200;-90
2022/05/10 03:26:24;;;;;;;2.13;1.90;;;;;;;12.28;100.00;96802.38;5013935;28;20222;-88
2022/05/10 03:28:52;;;;;;;2.67;1.87;;;;;;;12.36;100.00;96802.06;5020934;28;20227;-89
2022/05/10 03:31:22;;;;;;;3.23;2.20;;;;;;;12.31;100.00;96802.75;5019468;28;20208;-87
2022/05/10 03:34:53;;;;;;;4.37;2.13;;;;;;;12.33;100.00;96794.41;5019266;28;20218;-91
2022/05/10 03:36:39;;;;;;;2.87;1.97;;;;;;;12.33;100.00;96789.00;5018700;28;20206;-88
2022/05/10 03:39:06;;;;;;;3.80;1.90;;;;;;;12.31;100.00;96788.41;5011615;28;20210;-88
2022/05/10 03:41:34;;;;;;;2.10;1.70;;;;;;;12.29;100.00;96782.38;5018663;28;20228;-90
2022/05/10 03:44:01;;;;;;;2.60;1.83;;;;;;;12.30;100.00;96784.03;5019226;28;20207;-90
2022/05/10 03:46:28;;;;;;;2.83;2.10;;;;;;;12.26;100.00;96777.41;5020738;28;20207;-91
2022/05/10 03:48:55;;;;;;;3.73;1.80;;;;;;;12.24;100.00;96776.84;5012780;28;20299;-88
2022/05/10 03:51:22;;;;;;;3.60;1.83;;;;;;;12.25;100.00;96779.28;5014705;28;20199;-90
2022/05/10 03:53:50;;;;;;;1.70;1.60;;;;;;;12.30;100.00;96773.19;5011302;28;20222;-89
2022/05/10 03:56:17;;;;;;;2.23;1.80;;;;;;;12.30;100.00;96771.31;5010740;28;20211;-90
2022/05/10 03:58:45;;;;;;;5.53;1.90;;;;;;;12.30;100.00;96773.19;5020078;28;20209;-89
2022/05/10 04:01:12;;;;;;;2.37;1.63;;;;;;;12.31;100.00;96774.84;5014170;28;20226;-90
2022/05/10 04:03:39;;;;;;;1.97;1.77;;;;;;;12.32;100.00;96771.09;5020964;28;20195;-91
2022/05/10 04:06:06;;;;;;;1.97;1.77;;;;;;;12.36;100.00;96772.28;5011161;28;20359;-91
2022/05/10 04:08:34;;;;;;;2.10;1.90;;;;;;;12.41;100.00;96772.44;5012077;28;20211;-87
2022/05/10 04:11:07;;;;;;;2.60;1.97;;;;;;;12.41;100.00;96769.72;5032827;28;20203;-91
2022/05/10 04:13:35;;;;;;;2.70;2.07;;;;;;;12.42;100.00;96774.03;5015789;28;20239;-89
2022/05/10 04:16:02;;;;;;;4.07;2.23;;;;;;;12.38;100.00;96770.16;5018407;28;20211;-88
2022/05/10 04:18:29;;;;;;;2.43;2.20;;;;;;;12.35;100.00;96778.75;5014445;28;20211;-89
2022/05/10 04:20:56;;;;;;;3.00;2.00;;;;;;;12.30;100.00;96776.75;5016483;28;20235;-86
2022/05/10 04:23:24;;;;;;;2.40;2.20;;;;;;;12.25;100.00;96786.63;5025523;28;20568;-90
2022/05/10 04:25:52;;;;;;;2.33;1.83;;;;;;;12.27;100.00;96779.91;5013121;28;20322;-90
2022/05/10 04:28:20;;;;;;;3.27;1.70;;;;;;;12.34;100.00;96782.50;5015412;28;20225;-90
2022/05/10 04:30:48;;;;;;;6.03;1.83;;;;;;;12.41;100.00;96777.84;5011144;28;20215;-89
2022/05/10 04:35:53;;;;;;;2.17;1.77;;;;;;;12.38;100.00;96775.59;5107421;27;20579;-83
2022/05/10 04:38:20;;;;;;;2.17;1.77;;;;;;;12.49;100.00;96774.81;5057278;28;20210;-83
2022/05/10 04:43:38;;;;;;;2.47;1.90;;;;;;;12.54;100.00;96785.75;5062135;28;20210;-83
2022/05/10 04:46:05;;;;;;;4.37;1.83;;;;;;;12.59;100.00;96787.78;5044882;28;20213;-83
2022/05/10 04:48:33;;;;;;;1.70;1.40;;;;;;;12.70;100.00;96776.94;5065112;28;20237;-83
2022/05/10 04:51:03;;;;;;;2.30;1.83;;;;;;;12.73;100.00;96779.19;5065094;28;20237;-83
2022/05/10 04:53:30;;;;;;;3.33;2.27;;;;;;;12.75;100.00;96776.25;5055693;28;20197;-83
2022/05/10 04:55:57;;;;;;;3.00;1.97;;;;;;;12.75;100.00;96782.50;5050563;28;20555;-83
2022/05/10 04:58:24;;;;;;;2.20;1.70;;;;;;;12.75;100.00;96782.50;5056259;28;20263;-82
2022/05/10 05:00:52;;;;;;;2.10;1.70;;;;;;;12.63;100.00;96773.53;5054726;28;20198;-83
2022/05/10 05:03:19;;;;;;;5.57;1.83;;;;;;;12.64;100.00;96786.00;5084414;28;20214;-83
2022/05/10 05:05:46;;;;;;;1.80;1.70;;;;;;;12.63;100.00;96786.25;5069439;28;20210;-83
2022/05/10 05:08:14;;;;;;;3.93;2.23;;;;;;;12.61;100.00;96793.78;5054230;28;20226;-83
2022/05/10 05:10:41;;;;;;;2.67;2.00;;;;;;;12.54;100.00;96802.00;5063389;28;20201;-84
2022/05/10 05:13:09;;;;;;;3.17;2.63;;;;;;;12.48;100.00;96797.53;5050969;28;20206;-83
2022/05/10 05:15:36;;;;;;;4.23;2.13;;;;;;;12.41;100.00;96799.50;5090817;28;20244;-84
2022/05/10 05:18:04;;;;;;;2.00;1.80;;;;;;;12.43;100.00;96800.06;5058505;28;20235;-83
2022/05/10 05:20:33;;;;;;;4.83;2.30;;;;;;;12.38;100.00;96803.50;5056638;28;20236;-83
2022/05/10 05:23:01;;;;;;;4.27;2.10;;;;;;;12.35;100.00;96803.13;5059217;28;20304;-83
2022/05/10 05:25:29;;;;;;;2.27;1.80;;;;;;;12.30;100.00;96803.00;5055696;28;20325;-83
2022/05/10 05:27:56;;;;;;;3.07;2.43;;;;;;;12.26;100.00;96796.38;5054620;28;20214;-83
2022/05/10 05:30:23;;;;;;;6.40;3.50;;;;;;;12.22;100.00;96789.78;5054081;28;20214;-83
2022/05/10 05:32:51;;;;;;;4.33;2.10;;;;;;;12.27;100.00;96800.72;5068692;28;20216;-83
2022/05/10 05:35:18;;;;;;;37.93;30.23;;;;;;;12.25;100.00;96792.84;5065470;28;20236;-84
2022/05/10 05:37:46;;;;;;;2.13;1.83;;;;;;;12.27;100.00;96798.84;5062230;28;20185;-83
2022/05/10 05:40:15;;;;;;;3.47;2.17;;;;;;;12.29;100.00;96798.63;5058697;28;20204;-83
2022/05/10 05:42:44;;;;;;;263.80;222.87;;;;;;;12.27;100.00;96798.84;5065174;28;20217;-83
2022/05/10 05:49:19;;;;;;;4.87;2.40;;;;;;;12.26;100.00;96788.25;5075802;27;20573;-82
2022/05/10 05:51:46;;;;;;;4.33;2.33;;;;;;;12.26;100.00;96804.50;5068927;28;20206;-82
2022/05/10 05:54:13;;;;;;;2.67;2.03;;;;;;;12.21;100.00;96796.25;5049631;28;20284;-83
2022/05/10 05:56:40;;;;;;;10.70;3.53;;;;;;;12.28;100.00;96808.63;5072991;28;20206;-84
2022/05/10 05:59:07;;;;;;;4.87;2.10;;;;;;;12.30;100.00;96811.13;5061517;28;20228;-83
2022/05/10 06:01:34;;;;;;;2.73;2.00;;;;;;;12.31;100.00;96808.19;5061300;28;20209;-82
2022/05/10 06:04:01;;;;;;;17.77;13.13;;;;;;;12.33;100.00;96807.97;5064837;28;20222;-83
2022/05/10 06:06:29;;;;;;;4.57;2.50;;;;;;;12.35;100.00;96814.78;5051722;28;20210;-83
2022/05/10 06:09:51;;;;;;;7.63;2.80;;;;;;;12.29;100.00;96810.28;5111376;27;1714158;-83
2022/05/10 06:12:20;;;;;;;5.53;2.80;;;;;;;12.25;100.00;96816.41;5135056;27;20199;-82
2022/05/10 06:14:49;;;;;;;4.73;2.67;;;;;;;12.20;100.00;96819.78;5142718;27;20218;-82
2022/05/10 06:17:17;;;;;;;8.40;3.80;;;;;;;12.12;100.00;96815.50;5140623;27;20194;-82
2022/05/10 06:20:33;;;;;;;10.37;4.17;;;;;;;12.17;100.00;96808.56;5086863;27;20612;-82
2022/05/10 06:23:01;;;;;;;11.67;4.00;;;;;;;12.15;100.00;96811.53;5058482;28;20198;-82
2022/05/10 06:25:28;;;;;;;6.17;3.60;;;;;;;12.12;100.00;96810.09;5055053;28;20214;-83
2022/05/10 06:27:56;;;;;;;9.93;3.17;;;;;;;12.09;100.00;96815.13;5058380;28;20225;-83
2022/05/10 06:30:24;;;;;;;13.23;4.97;;;;;;;12.02;100.00;96809.81;5069759;28;20292;-83
2022/05/10 06:32:52;;;;;;;8.17;3.50;;;;;;;12.06;100.00;96810.19;5054040;28;20213;-83
2022/05/10 06:35:20;;;;;;;7.30;3.50;;;;;;;12.08;100.00;96803.47;5053479;28;20202;-83
2022/05/10 06:40:34;;;;;;;9.23;2.70;;;;;;;12.13;100.00;96811.75;5049823;28;20252;-83
2022/05/10 06:43:02;;;;;;;4.17;2.77;;;;;;;12.17;100.00;96811.28;5045171;28;20194;-83
2022/05/10 06:45:32;;;;;;;4.10;2.77;;;;;;;12.22;100.00;96808.72;5048400;28;20210;-83
2022/05/10 06:48:00;;;;;;;4.00;2.20;;;;;;;12.29;100.00;96804.03;5046975;28;20219;-83
2022/05/10 06:50:28;;;;;;;3.80;1.87;;;;;;;12.32;100.00;96795.47;5051970;28;20205;-84
2022/05/10 06:52:58;;;;;;;2.67;2.00;;;;;;;12.35;100.00;96806.66;5057334;28;20280;-83
2022/05/10 06:55:26;;;;;;;2.80;1.73;;;;;;;12.34;100.00;96804.16;5053103;28;20198;-83
2022/05/10 06:57:54;;;;;;;2.40;1.70;;;;;;;12.28;100.00;96797.81;5047544;28;20211;-83
2022/05/10 07:00:22;;;;;;;5.80;2.40;;;;;;;12.34;100.00;96807.69;5047410;28;20320;-83
2022/05/10 07:02:50;;;;;;;6.07;2.20;;;;;;;12.42;100.00;96796.53;5050206;28;20190;-83
2022/05/10 07:05:18;;;;;;;4.00;1.80;;;;;;;12.41;100.00;96804.91;5052957;28;20216;-83
2022/05/10 07:07:45;;;;;;;3.93;1.97;;;;;;;12.39;100.00;96799.72;5054904;28;20230;-83
2022/05/10 07:10:19;;;;;;;3.00;1.90;;;;;;;12.39;100.00;96788.06;5053877;28;20267;-83
2022/05/10 07:12:46;;;;;;;14.77;10.80;;;;;;;12.53;100.00;96789.50;5051559;28;20259;-84
2022/05/10 07:15:32;;;;;;;4.77;2.20;;;;;;;12.76;100.00;96797.69;5089006;27;1945857;-83
2022/05/10 07:17:59;;;;;;;4.87;1.87;;;;;;;13.14;100.00;96801.91;5124187;27;20225;-83
2022/05/10 07:20:26;;;;;;;2.27;1.70;;;;;;;13.52;100.00;96799.53;5122395;27;20223;-83
2022/05/10 07:22:53;;;;;;;4.07;2.17;;;;;;;13.99;100.00;96796.72;5101920;27;20203;-83
2022/05/10 07:26:22;;;;;;;2.17;1.53;;;;;;;14.73;100.00;96800.31;5134781;27;20578;-83
2022/05/10 07:28:50;;;;;;;9.10;4.23;;;;;;;14.99;100.00;96802.38;5100307;27;20211;-83
2022/05/10 07:31:17;;;;;;;6.90;3.43;;;;;;;15.17;100.00;96792.31;5105905;27;20225;-83
2022/05/10 07:33:44;;;;;;;8.83;7.80;;;;;;;15.34;100.00;96798.56;5100586;28;20216;-83
2022/05/10 07:38:42;;;;;;;36.17;32.73;;;;;;;15.97;98.58;96783.69;5139293;27;20689;-84
2022/05/10 07:44:57;;;;;;;23.50;14.40;;;;;;;16.42;91.40;96786.09;5088043;27;20569;-85
2022/05/10 07:47:24;;;;;;;1.90;1.57;;;;;;;16.57;91.45;96778.91;5091135;28;20285;-84
2022/05/10 07:49:54;;;;;;;2.20;1.67;;;;;;;16.91;91.59;96775.97;5085522;28;20243;-83
2022/05/10 07:52:21;;;;;;;15.00;13.57;;;;;;;17.00;86.57;96777.97;5124799;27;20270;-84
2022/05/10 07:54:48;;;;;;;3.53;1.80;;;;;;;16.87;85.07;96781.13;5088037;28;20227;-84
2022/05/10 07:57:15;;;;;;;39.90;35.90;;;;;;;16.84;85.67;96770.72;5096391;28;20212;-84
2022/05/10 07:59:42;;;;;;;7.50;3.60;;;;;;;17.01;86.98;96765.16;5090691;28;20208;-83
2022/05/10 08:02:11;;;;;;;2.07;1.50;;;;;;;17.13;84.42;96765.78;5094640;28;20294;-85
2022/05/10 08:04:38;;;;;;;2.70;1.73;;;;;;;17.20;80.47;96771.84;5118659;27;20221;-83
2022/05/10 08:07:05;;;;;;;1.73;1.57;;;;;;;17.53;79.93;96769.84;5121739;27;20205;-83
2022/05/10 08:09:33;;;;;;;3.33;1.60;;;;;;;18.09;78.97;96771.84;5091917;28;20212;-84
2022/05/10 08:12:00;;;;;;;3.07;2.50;;;;;;;18.41;74.13;96773.56;5096774;28;20209;-84
2022/05/10 08:14:27;;;;;;;2.73;1.73;;;;;;;18.69;76.58;96772.28;5089748;28;20244;-84
2022/05/10 08:16:56;;;;;;;11.10;3.07;;;;;;;18.88;74.69;96766.00;5097714;28;20211;-84
2022/05/10 08:19:25;;;;;;;4.40;2.43;;;;;;;19.14;73.04;96768.78;5089986;28;20204;-84
2022/05/10 08:21:55;;;;;;;3.83;2.77;;;;;;;19.31;73.98;96765.75;5089671;28;20278;-84
2022/05/10 08:24:22;;;;;;;5.17;2.57;;;;;;;19.44;70.30;96763.25;5093494;28;20233;-85
2022/05/10 08:26:49;;;;;;;7.77;6.60;;;;;;;19.64;70.46;96763.25;5085958;28;20203;-83
2022/05/10 08:29:17;;;;;;;4.70;4.30;;;;;;;19.77;72.34;96761.84;5082643;28;20208;-84
2022/05/10 08:31:43;;;;;;;3.83;2.40;;;;;;;19.90;70.25;96755.78;5091361;28;20204;-84
2022/05/10 08:34:12;;;;;;;2.65;2.45;;;;;;;20.06;70.62;96752.97;5085831;28;20204;-84
2022/05/10 08:36:41;;;;;;;8.43;4.07;;;;;;;20.17;69.40;96758.09;5088097;28;20248;-84
2022/05/10 08:39:08;;;;;;;6.85;2.53;;;;;;;20.18;71.71;96756.19;5090551;28;20241;-84
2022/05/10 08:41:44;;;;;;;9.20;4.20;;;;;;;20.25;72.59;96752.03;5093748;28;20276;-84
2022/05/10 08:44:15;;;;;;;4.13;2.47;;;;;;;20.50;72.32;96753.84;5083660;28;20236;-85
2022/05/10 08:46:48;;;;;;;4.53;2.70;;;;;;;20.60;70.58;96758.44;5092970;28;20207;-85
2022/05/10 08:49:21;;;;;;;2.30;1.98;;;;;;;20.28;70.05;96750.66;5084076;28;20211;-84
2022/05/10 08:51:52;;;;;;;8.70;2.70;;;;;;;20.56;68.87;96758.22;5092509;28;20215;-85
2022/05/10 08:54:20;;;;;;;3.50;2.30;;;;;;;20.36;68.69;96750.91;5098129;28;20227;-84
2022/05/10 08:56:52;;;;;;;3.47;2.10;;;;;;;20.56;68.66;96751.91;5079416;28;20205;-84
2022/05/10 08:59:30;;;;;;;3.47;2.15;;;;;;;20.64;67.53;96754.06;5076560;28;20209;-84
2022/05/10 09:02:04;;;;;;;6.60;2.58;;;;;;;20.51;65.12;96750.00;5075537;28;20240;-84
2022/05/10 09:18:10;;;;;;;1.75;1.65;;;;;;;20.66;63.19;96757.34;5053358;28;20638;-82
2022/05/10 09:23:33;;;;;;;2.08;1.88;;;;;;;21.03;58.96;96752.09;5052050;28;20588;-84
2022/05/10 09:26:01;;;;;;;2.10;1.70;;;;;;;21.20;57.11;96745.41;5028586;28;20301;-84
2022/05/10 09:28:34;;;;;;;1.75;1.58;;;;;;;21.29;57.22;96739.00;5028668;28;20214;-84
2022/05/10 09:37:16;;;;;;;2.42;2.03;;;;;;;21.88;59.03;96735.91;5031018;28;20261;-83
2022/05/10 09:39:48;;;;;;;6.28;2.13;;;;;;;22.18;59.44;96737.50;5034549;28;21064;-83
2022/05/10 09:42:30;;;;;;;2.90;2.10;;;;;;;22.33;56.22;96730.16;5036062;28;20238;-83
2022/05/10 09:45:03;;;;;;;2.50;2.00;;;;;;;22.17;56.65;96732.28;5032907;28;20222;-83
2022/05/10 09:47:31;;;;;;;2.30;2.10;;;;;;;22.31;58.56;96738.69;5025358;28;20210;-83
2022/05/10 09:50:17;;;;;;;3.20;1.80;;;;;;;22.46;58.15;96738.47;5029433;28;20215;-84
2022/05/10 09:52:45;;;;;;;2.40;2.20;;;;;;;22.54;57.06;96726.03;5025434;28;20217;-83
2022/05/10 09:55:26;;;;;;;3.97;2.00;;;;;;;22.69;57.68;96725.78;5026736;28;20206;-83
2022/05/10 09:57:55;;;;;;;3.05;2.00;;;;;;;22.68;55.30;96709.56;5027753;28;20202;-83
2022/05/10 10:00:38;;;;;;;3.25;2.13;;;;;;;22.72;56.11;96721.59;5033908;28;20199;-84
2022/05/10 10:03:05;;;;;;;3.33;2.53;;;;;;;22.66;57.59;96704.34;5025515;28;20285;-83
2022/05/10 10:05:34;;;;;;;5.82;2.40;;;;;;;22.89;56.91;96714.47;5035061;28;20195;-84
2022/05/10 10:08:01;;;;;;;6.32;2.33;;;;;;;22.60;57.53;96709.13;5030945;28;20384;-84
2022/05/10 10:10:33;;;;;;;2.30;2.10;;;;;;;22.88;57.68;96707.31;5033974;28;20210;-84
2022/05/10 10:13:01;;;;;;;2.70;2.45;;;;;;;23.00;57.69;96706.88;5024267;28;20203;-84
2022/05/10 10:15:36;;;;;;;3.47;2.40;;;;;;;23.15;57.88;96711.28;5033037;28;20206;-84
2022/05/10 10:18:06;;;;;;;3.58;2.20;;;;;;;23.32;56.35;96701.34;5034513;28;20245;-85
2022/05/10 10:20:40;;;;;;;5.40;2.05;;;;;;;23.37;55.41;96705.97;5028341;28;20229;-85
2022/05/10 10:23:18;;;;;;;2.95;2.40;;;;;;;23.27;55.94;96690.41;5047546;28;20340;-84
2022/05/10 10:25:49;;;;;;;2.75;2.47;;;;;;;23.46;56.52;96706.06;5050097;28;20202;-84
2022/05/10 10:28:29;;;;;;;3.45;2.33;;;;;;;23.56;55.15;96698.44;5045122;28;20217;-85
2022/05/10 10:31:00;;;;;;;3.08;2.38;;;;;;;23.66;55.30;96703.75;5057057;28;20280;-84
2022/05/10 10:33:34;;;;;;;2.40;2.17;;;;;;;23.74;55.22;96691.22;5043730;28;20211;-84
2022/05/10 10:36:05;;;;;;;3.20;2.22;;;;;;;23.85;54.92;96684.38;5042248;28;20216;-84
2022/05/10 10:38:46;;;;;;;3.13;2.53;;;;;;;23.73;53.76;96682.13;5030342;28;20272;-84
2022/05/10 10:41:18;;;;;;;3.35;2.17;;;;;;;23.83;54.83;96681.09;5045814;28;20303;-84
2022/05/10 10:43:51;;;;;;;4.00;2.47;;;;;;;24.01;54.68;96671.91;5031933;28;20211;-84
2022/05/10 10:46:25;;;;;;;3.00;2.20;;;;;;;24.06;52.21;96674.56;5040131;28;20223;-84
2022/05/10 10:48:56;;;;;;;2.55;2.10;;;;;;;24.27;52.91;96663.91;5039072;28;20352;-84
2022/05/10 10:51:29;;;;;;;3.63;2.40;;;;;;;24.40;51.97;96673.28;5050039;28;20218;-84
2022/05/10 10:53:56;;;;;;;4.72;2.50;;;;;;;24.52;51.91;96668.03;5041748;28;20343;-84
2022/05/10 10:56:50;;;;;;;3.78;2.40;;;;;;;24.49;50.63;96675.00;5041753;28;20202;-84
2022/05/10 10:59:39;;;;;;;3.60;2.42;;;;;;;24.49;50.77;96660.38;5030240;28;20217;-84
2022/05/10 11:02:29;;;;;;;2.28;2.08;;;;;;;24.68;50.70;96666.53;5041025;28;20234;-84
2022/05/10 11:05:12;;;;;;;2.20;2.00;;;;;;;24.60;49.28;96656.25;5038645;28;20207;-84
2022/05/10 11:07:54;;;;;;;4.05;2.63;;;;;;;24.50;50.97;96660.06;5039062;28;20205;-84
2022/05/10 11:10:32;;;;;;;2.30;2.10;;;;;;;24.48;48.39;96659.56;5039083;28;20325;-85
2022/05/10 11:13:17;;;;;;;2.72;2.30;;;;;;;24.48;48.06;96645.78;5035116;28;20199;-86
2022/05/10 11:15:55;;;;;;;3.13;2.08;;;;;;;24.81;50.83;96645.53;5040418;28;20225;-85
2022/05/10 11:18:35;;;;;;;5.30;2.42;;;;;;;24.95;50.08;96635.25;5034645;28;20293;-85
2022/05/10 11:21:15;;;;;;;2.53;2.33;;;;;;;24.86;47.92;96629.63;5028667;28;20234;-85
2022/05/10 11:23:57;;;;;;;2.65;2.45;;;;;;;24.89;48.37;96626.25;5039872;28;20221;-85
2022/05/10 11:26:39;;;;;;;2.60;2.20;;;;;;;25.11;49.18;96621.84;5035859;28;20202;-85
2022/05/10 11:29:23;;;;;;;4.20;2.50;;;;;;;25.16;47.20;96627.25;5043718;28;20210;-86
2022/05/10 11:32:06;;;;;;;2.75;2.55;;;;;;;25.19;47.05;96627.44;5031803;28;20334;-85
2022/05/10 11:35:01;;;;;;;2.60;2.40;;;;;;;25.35;47.82;96630.59;5027734;28;20233;-85
2022/05/10 11:37:33;;;;;;;3.35;2.33;;;;;;;25.38;46.56;96610.63;5033682;28;20304;-85
2022/05/10 11:40:31;;;;;;;2.95;2.22;;;;;;;25.38;46.10;96616.13;5035134;28;20211;-86
2022/05/10 11:44:01;;;;;;;5.68;2.45;;;;;;;25.40;46.68;96611.13;5028224;28;20276;-86
2022/05/10 11:46:57;;;;;;;2.75;2.40;;;;;;;25.40;44.93;96608.34;5037680;28;20213;-86
2022/05/10 11:50:03;;;;;;;3.00;2.35;;;;;;;25.42;45.30;96608.03;5028369;28;20293;-85
2022/05/10 11:52:55;;;;;;;6.28;5.35;;;;;;;25.66;45.45;96613.19;5002975;28;20288;-85
2022/05/10 11:55:25;;;;;;;3.95;2.20;;;;;;;25.37;47.36;96603.44;5028489;28;20305;-86
2022/05/10 11:57:59;;;;;;;3.10;2.35;;;;;;;25.48;47.75;96604.00;5046731;28;20202;-86
2022/05/10 12:00:52;;;;;;;3.55;2.50;;;;;;;25.59;45.97;96599.84;5032267;28;20256;-86
2022/05/10 12:03:57;;;;;;;3.22;2.20;;;;;;;25.73;45.29;96589.47;5029226;28;20218;-85
2022/05/10 12:06:42;;;;;;;2.85;2.60;;;;;;;25.77;46.16;96584.13;5035613;28;20213;-86
2022/05/10 12:09:16;;;;;;;3.97;2.30;;;;;;;25.69;46.88;96582.16;5041034;28;20202;-85
2022/05/10 12:11:46;;;;;;;3.85;2.47;;;;;;;25.86;47.21;96574.66;5040493;28;20260;-85
2022/05/10 12:24:02;;;;;;;6.70;3.08;;;;;;;25.94;44.32;96567.53;5023855;28;20250;-86
2022/05/10 12:26:51;;;;;;;14.38;13.00;;;;;;;25.78;45.50;96569.94;5028814;28;20213;-86
2022/05/10 12:41:53;;;;;;;3.90;2.30;;;;;;;26.02;42.85;96552.09;5113204;27;20591;-85
2022/05/10 12:44:49;;;;;;;3.42;2.60;;;;;;;25.82;44.18;96539.69;5085303;28;20207;-85
2022/05/10 12:47:37;;;;;;;3.70;2.53;;;;;;;25.92;44.22;96550.44;5096987;28;20201;-83
2022/05/10 12:50:19;;;;;;;4.18;2.83;;;;;;;25.91;44.43;96546.06;5089879;28;20220;-83
2022/05/10 12:52:47;;;;;;;3.42;2.58;;;;;;;25.92;44.83;96542.16;5094710;28;20212;-83
2022/05/10 12:55:19;;;;;;;4.18;2.90;;;;;;;25.90;45.06;96536.13;5092571;28;20204;-85
2022/05/10 12:57:55;;;;;;;3.97;3.20;;;;;;;25.91;45.64;96532.22;5095110;28;20205;-83
2022/05/10 13:00:25;;;;;;;3.05;2.85;;;;;;;26.12;44.40;96533.19;5087696;28;20236;-85